sensor_id;sensor_type;location;lat;lon;timestamp;P1;durP1;ratioP1;P2;durP2;ratioP2
76550;SDS011;68768;53.156;18.164;2024-02-26T00:00:08;32.70;;;16.10;;
76550;SDS011;68768;53.156;18.164;2024-02-26T00:02:57;34.00;;;15.40;;
76550;SDS011;68768;53.156;18.164;2024-02-26T00:05:24;41.20;;;18.80;;
76550;SDS011;68768;53.156;18.164;2024-02-26T00:07:51;56.60;;;23.90;;
76550;SDS011;68768;53.156;18.164;2024-02-26T00:10:18;57.10;;;25.60;;
76550;SDS011;68768;53.156;18.164;2024-02-26T00:12:45;47.10;;;21.00;;
76550;SDS011;68768;53.156;18.164;2024-02-26T00:15:12;37.90;;;18.80;;
76550;SDS011;68768;53.156;18.164;2024-02-26T00:17:39;35.90;;;16.60;;
76550;SDS011;68768;53.156;18.164;2024-02-26T00:20:06;43.40;;;19.10;;
76550;SDS011;68768;53.156;18.164;2024-02-26T00:22:37;44.60;;;20.10;;
76550;SDS011;68768;53.156;18.164;2024-02-26T00:25:04;42.10;;;19.50;;
76550;SDS011;68768;53.156;18.164;2024-02-26T00:27:31;57.10;;;23.70;;
76550;SDS011;68768;53.156;18.164;2024-02-26T00:29:58;55.40;;;23.90;;
76550;SDS011;68768;53.156;18.164;2024-02-26T00:32:25;54.10;;;23.40;;
76550;SDS011;68768;53.156;18.164;2024-02-26T00:34:52;61.50;;;25.50;;
76550;SDS011;68768;53.156;18.164;2024-02-26T00:37:18;48.70;;;22.30;;
76550;SDS011;68768;53.156;18.164;2024-02-26T00:39:45;50.00;;;21.90;;
76550;SDS011;68768;53.156;18.164;2024-02-26T00:42:13;51.50;;;22.10;;
76550;SDS011;68768;53.156;18.164;2024-02-26T00:44:40;48.70;;;22.70;;
76550;SDS011;68768;53.156;18.164;2024-02-26T00:47:06;45.50;;;22.20;;
76550;SDS011;68768;53.156;18.164;2024-02-26T00:49:33;43.70;;;20.90;;
76550;SDS011;68768;53.156;18.164;2024-02-26T00:52:00;45.50;;;20.70;;
76550;SDS011;68768;53.156;18.164;2024-02-26T00:54:27;44.90;;;19.40;;
76550;SDS011;68768;53.156;18.164;2024-02-26T00:56:54;46.20;;;21.50;;
76550;SDS011;68768;53.156;18.164;2024-02-26T00:59:21;47.60;;;20.50;;
76550;SDS011;68768;53.156;18.164;2024-02-26T01:01:48;44.10;;;18.90;;
76550;SDS011;68768;53.156;18.164;2024-02-26T01:04:15;45.30;;;20.40;;
76550;SDS011;68768;53.156;18.164;2024-02-26T01:06:42;56.70;;;24.90;;
76550;SDS011;68768;53.156;18.164;2024-02-26T01:09:09;57.60;;;25.00;;
76550;SDS011;68768;53.156;18.164;2024-02-26T01:11:35;53.20;;;23.40;;
76550;SDS011;68768;53.156;18.164;2024-02-26T01:14:02;61.30;;;25.30;;
76550;SDS011;68768;53.156;18.164;2024-02-26T01:16:30;57.30;;;23.70;;
76550;SDS011;68768;53.156;18.164;2024-02-26T01:18:58;57.10;;;25.80;;
76550;SDS011;68768;53.156;18.164;2024-02-26T01:21:25;62.00;;;24.40;;
76550;SDS011;68768;53.156;18.164;2024-02-26T01:23:55;68.30;;;27.00;;
76550;SDS011;68768;53.156;18.164;2024-02-26T01:26:22;58.90;;;25.50;;
76550;SDS011;68768;53.156;18.164;2024-02-26T01:28:49;60.10;;;25.20;;
76550;SDS011;68768;53.156;18.164;2024-02-26T01:31:16;65.30;;;25.90;;
76550;SDS011;68768;53.156;18.164;2024-02-26T01:33:42;63.70;;;24.30;;
76550;SDS011;68768;53.156;18.164;2024-02-26T01:36:10;59.00;;;24.50;;
76550;SDS011;68768;53.156;18.164;2024-02-26T01:38:36;54.80;;;23.50;;
76550;SDS011;68768;53.156;18.164;2024-02-26T01:41:03;53.90;;;23.10;;
76550;SDS011;68768;53.156;18.164;2024-02-26T01:43:30;53.80;;;23.30;;
76550;SDS011;68768;53.156;18.164;2024-02-26T01:45:58;54.30;;;22.90;;
76550;SDS011;68768;53.156;18.164;2024-02-26T01:48:25;59.70;;;24.10;;
76550;SDS011;68768;53.156;18.164;2024-02-26T01:50:52;60.40;;;21.90;;
76550;SDS011;68768;53.156;18.164;2024-02-26T01:53:19;50.70;;;22.20;;
76550;SDS011;68768;53.156;18.164;2024-02-26T01:55:47;51.50;;;21.70;;
76550;SDS011;68768;53.156;18.164;2024-02-26T01:58:14;51.70;;;21.80;;
76550;SDS011;68768;53.156;18.164;2024-02-26T02:00:42;54.50;;;21.70;;
76550;SDS011;68768;53.156;18.164;2024-02-26T02:03:09;56.20;;;22.30;;
76550;SDS011;68768;53.156;18.164;2024-02-26T02:05:42;55.00;;;22.90;;
76550;SDS011;68768;53.156;18.164;2024-02-26T02:08:10;59.60;;;24.30;;
76550;SDS011;68768;53.156;18.164;2024-02-26T02:10:38;52.30;;;24.00;;
76550;SDS011;68768;53.156;18.164;2024-02-26T02:13:05;68.40;;;25.80;;
76550;SDS011;68768;53.156;18.164;2024-02-26T02:15:32;71.90;;;27.00;;
76550;SDS011;68768;53.156;18.164;2024-02-26T02:17:59;64.40;;;26.20;;
76550;SDS011;68768;53.156;18.164;2024-02-26T02:20:33;73.70;;;27.20;;
76550;SDS011;68768;53.156;18.164;2024-02-26T02:23:01;66.90;;;26.70;;
76550;SDS011;68768;53.156;18.164;2024-02-26T02:25:29;73.00;;;28.60;;
76550;SDS011;68768;53.156;18.164;2024-02-26T02:27:55;76.10;;;29.70;;
76550;SDS011;68768;53.156;18.164;2024-02-26T02:30:27;73.40;;;28.90;;
76550;SDS011;68768;53.156;18.164;2024-02-26T02:32:55;53.30;;;22.90;;
76550;SDS011;68768;53.156;18.164;2024-02-26T02:35:25;53.60;;;22.90;;
76550;SDS011;68768;53.156;18.164;2024-02-26T02:37:52;53.90;;;23.00;;
76550;SDS011;68768;53.156;18.164;2024-02-26T02:40:19;52.90;;;23.10;;
76550;SDS011;68768;53.156;18.164;2024-02-26T02:42:46;50.50;;;21.90;;
76550;SDS011;68768;53.156;18.164;2024-02-26T02:45:13;54.20;;;21.10;;
76550;SDS011;68768;53.156;18.164;2024-02-26T02:47:40;51.50;;;22.10;;
76550;SDS011;68768;53.156;18.164;2024-02-26T02:50:07;55.40;;;21.60;;
76550;SDS011;68768;53.156;18.164;2024-02-26T02:52:34;53.10;;;21.20;;
76550;SDS011;68768;53.156;18.164;2024-02-26T02:55:01;60.00;;;22.40;;
76550;SDS011;68768;53.156;18.164;2024-02-26T02:57:29;52.80;;;21.00;;
76550;SDS011;68768;53.156;18.164;2024-02-26T02:59:56;55.40;;;22.70;;
76550;SDS011;68768;53.156;18.164;2024-02-26T03:02:23;54.50;;;21.60;;
76550;SDS011;68768;53.156;18.164;2024-02-26T03:04:53;46.80;;;20.30;;
76550;SDS011;68768;53.156;18.164;2024-02-26T03:07:20;50.90;;;20.90;;
76550;SDS011;68768;53.156;18.164;2024-02-26T03:09:47;53.40;;;21.10;;
76550;SDS011;68768;53.156;18.164;2024-02-26T03:12:14;52.00;;;20.40;;
76550;SDS011;68768;53.156;18.164;2024-02-26T03:14:41;48.10;;;21.00;;
76550;SDS011;68768;53.156;18.164;2024-02-26T03:17:07;50.70;;;20.10;;
76550;SDS011;68768;53.156;18.164;2024-02-26T03:19:34;47.30;;;20.10;;
76550;SDS011;68768;53.156;18.164;2024-02-26T03:22:01;44.30;;;19.50;;
76550;SDS011;68768;53.156;18.164;2024-02-26T03:24:29;58.70;;;24.90;;
76550;SDS011;68768;53.156;18.164;2024-02-26T03:26:55;52.70;;;22.30;;
76550;SDS011;68768;53.156;18.164;2024-02-26T03:29:22;44.60;;;19.80;;
76550;SDS011;68768;53.156;18.164;2024-02-26T03:31:49;47.10;;;20.60;;
76550;SDS011;68768;53.156;18.164;2024-02-26T03:34:16;47.90;;;20.20;;
76550;SDS011;68768;53.156;18.164;2024-02-26T03:36:45;42.60;;;18.20;;
76550;SDS011;68768;53.156;18.164;2024-02-26T03:39:12;43.80;;;17.90;;
76550;SDS011;68768;53.156;18.164;2024-02-26T03:41:39;36.20;;;15.80;;
76550;SDS011;68768;53.156;18.164;2024-02-26T03:44:06;38.90;;;14.40;;
76550;SDS011;68768;53.156;18.164;2024-02-26T03:46:32;31.90;;;15.10;;
76550;SDS011;68768;53.156;18.164;2024-02-26T03:48:59;29.90;;;13.70;;
76550;SDS011;68768;53.156;18.164;2024-02-26T03:51:26;33.50;;;14.30;;
76550;SDS011;68768;53.156;18.164;2024-02-26T03:53:57;29.60;;;13.30;;
76550;SDS011;68768;53.156;18.164;2024-02-26T03:56:25;59.80;;;15.70;;
76550;SDS011;68768;53.156;18.164;2024-02-26T03:58:53;35.20;;;13.20;;
76550;SDS011;68768;53.156;18.164;2024-02-26T04:01:20;46.70;;;14.40;;
76550;SDS011;68768;53.156;18.164;2024-02-26T04:03:47;37.40;;;14.70;;
76550;SDS011;68768;53.156;18.164;2024-02-26T04:06:14;39.10;;;13.70;;
76550;SDS011;68768;53.156;18.164;2024-02-26T04:08:41;57.20;;;14.90;;
76550;SDS011;68768;53.156;18.164;2024-02-26T04:11:08;36.80;;;15.60;;
76550;SDS011;68768;53.156;18.164;2024-02-26T04:13:36;71.60;;;16.80;;
76550;SDS011;68768;53.156;18.164;2024-02-26T04:16:06;50.50;;;15.40;;
76550;SDS011;68768;53.156;18.164;2024-02-26T04:18:33;64.30;;;15.00;;
76550;SDS011;68768;53.156;18.164;2024-02-26T04:21:00;66.10;;;17.10;;
76550;SDS011;68768;53.156;18.164;2024-02-26T04:23:27;44.70;;;15.70;;
76550;SDS011;68768;53.156;18.164;2024-02-26T04:25:54;47.90;;;15.40;;
76550;SDS011;68768;53.156;18.164;2024-02-26T04:28:21;64.10;;;18.00;;
76550;SDS011;68768;53.156;18.164;2024-02-26T04:30:48;63.60;;;18.10;;
76550;SDS011;68768;53.156;18.164;2024-02-26T04:33:14;43.90;;;14.40;;
76550;SDS011;68768;53.156;18.164;2024-02-26T04:35:41;36.90;;;15.80;;
76550;SDS011;68768;53.156;18.164;2024-02-26T04:38:09;34.70;;;14.20;;
76550;SDS011;68768;53.156;18.164;2024-02-26T04:40:36;40.60;;;14.80;;
76550;SDS011;68768;53.156;18.164;2024-02-26T04:43:03;45.20;;;15.20;;
76550;SDS011;68768;53.156;18.164;2024-02-26T04:45:30;37.90;;;15.10;;
76550;SDS011;68768;53.156;18.164;2024-02-26T04:47:57;34.70;;;16.10;;
76550;SDS011;68768;53.156;18.164;2024-02-26T04:50:23;38.70;;;17.20;;
76550;SDS011;68768;53.156;18.164;2024-02-26T04:52:50;43.70;;;17.00;;
76550;SDS011;68768;53.156;18.164;2024-02-26T04:55:17;35.60;;;15.10;;
76550;SDS011;68768;53.156;18.164;2024-02-26T04:57:44;38.90;;;16.60;;
76550;SDS011;68768;53.156;18.164;2024-02-26T05:00:11;39.70;;;14.70;;
76550;SDS011;68768;53.156;18.164;2024-02-26T05:02:39;40.70;;;17.30;;
76550;SDS011;68768;53.156;18.164;2024-02-26T05:05:06;34.50;;;15.80;;
76550;SDS011;68768;53.156;18.164;2024-02-26T05:07:39;44.20;;;17.40;;
76550;SDS011;68768;53.156;18.164;2024-02-26T05:10:07;40.20;;;16.40;;
76550;SDS011;68768;53.156;18.164;2024-02-26T05:12:35;38.50;;;14.80;;
76550;SDS011;68768;53.156;18.164;2024-02-26T05:15:02;58.80;;;20.10;;
76550;SDS011;68768;53.156;18.164;2024-02-26T05:17:30;36.60;;;16.70;;
76550;SDS011;68768;53.156;18.164;2024-02-26T05:19:57;51.80;;;17.00;;
76550;SDS011;68768;53.156;18.164;2024-02-26T05:22:23;55.80;;;17.90;;
76550;SDS011;68768;53.156;18.164;2024-02-26T05:24:51;39.50;;;14.50;;
76550;SDS011;68768;53.156;18.164;2024-02-26T05:27:18;45.60;;;15.70;;
76550;SDS011;68768;53.156;18.164;2024-02-26T05:29:46;36.00;;;15.70;;
76550;SDS011;68768;53.156;18.164;2024-02-26T05:32:12;45.90;;;16.00;;
76550;SDS011;68768;53.156;18.164;2024-02-26T05:34:40;44.30;;;14.00;;
76550;SDS011;68768;53.156;18.164;2024-02-26T05:37:08;47.10;;;16.80;;
76550;SDS011;68768;53.156;18.164;2024-02-26T05:39:35;47.00;;;18.00;;
76550;SDS011;68768;53.156;18.164;2024-02-26T05:42:02;38.60;;;16.80;;
76550;SDS011;68768;53.156;18.164;2024-02-26T05:44:29;36.90;;;16.00;;
76550;SDS011;68768;53.156;18.164;2024-02-26T05:46:56;38.60;;;14.80;;
76550;SDS011;68768;53.156;18.164;2024-02-26T05:49:23;35.10;;;16.10;;
76550;SDS011;68768;53.156;18.164;2024-02-26T05:51:50;34.40;;;16.00;;
76550;SDS011;68768;53.156;18.164;2024-02-26T05:54:17;34.70;;;16.30;;
76550;SDS011;68768;53.156;18.164;2024-02-26T05:56:44;32.60;;;16.80;;
76550;SDS011;68768;53.156;18.164;2024-02-26T05:59:11;32.30;;;14.30;;
76550;SDS011;68768;53.156;18.164;2024-02-26T06:01:37;31.10;;;14.80;;
76550;SDS011;68768;53.156;18.164;2024-02-26T06:04:04;28.60;;;13.10;;
76550;SDS011;68768;53.156;18.164;2024-02-26T06:06:31;33.80;;;15.80;;
76550;SDS011;68768;53.156;18.164;2024-02-26T06:08:58;38.80;;;15.50;;
76550;SDS011;68768;53.156;18.164;2024-02-26T06:11:25;38.30;;;16.50;;
76550;SDS011;68768;53.156;18.164;2024-02-26T06:13:52;39.70;;;14.00;;
76550;SDS011;68768;53.156;18.164;2024-02-26T06:16:19;43.40;;;15.10;;
76550;SDS011;68768;53.156;18.164;2024-02-26T06:18:46;36.20;;;16.70;;
76550;SDS011;68768;53.156;18.164;2024-02-26T06:21:13;31.00;;;17.00;;
76550;SDS011;68768;53.156;18.164;2024-02-26T06:23:39;37.50;;;16.50;;
76550;SDS011;68768;53.156;18.164;2024-02-26T06:26:06;41.50;;;14.60;;
76550;SDS011;68768;53.156;18.164;2024-02-26T06:28:34;43.40;;;16.90;;
76550;SDS011;68768;53.156;18.164;2024-02-26T06:31:02;37.80;;;15.00;;
76550;SDS011;68768;53.156;18.164;2024-02-26T06:33:29;36.30;;;14.30;;
76550;SDS011;68768;53.156;18.164;2024-02-26T06:35:56;37.70;;;14.60;;
76550;SDS011;68768;53.156;18.164;2024-02-26T06:38:23;38.70;;;13.20;;
76550;SDS011;68768;53.156;18.164;2024-02-26T06:40:50;39.40;;;16.80;;
76550;SDS011;68768;53.156;18.164;2024-02-26T06:43:17;49.10;;;15.90;;
76550;SDS011;68768;53.156;18.164;2024-02-26T06:45:44;39.50;;;16.80;;
76550;SDS011;68768;53.156;18.164;2024-02-26T06:48:11;42.20;;;15.10;;
76550;SDS011;68768;53.156;18.164;2024-02-26T06:50:37;36.00;;;13.80;;
76550;SDS011;68768;53.156;18.164;2024-02-26T06:53:04;43.70;;;17.20;;
76550;SDS011;68768;53.156;18.164;2024-02-26T06:55:33;31.60;;;13.80;;
76550;SDS011;68768;53.156;18.164;2024-02-26T06:58:00;32.50;;;12.80;;
76550;SDS011;68768;53.156;18.164;2024-02-26T07:00:27;29.30;;;13.90;;
76550;SDS011;68768;53.156;18.164;2024-02-26T07:02:54;34.20;;;16.40;;
76550;SDS011;68768;53.156;18.164;2024-02-26T07:05:21;46.40;;;15.50;;
76550;SDS011;68768;53.156;18.164;2024-02-26T07:07:48;40.70;;;15.80;;
76550;SDS011;68768;53.156;18.164;2024-02-26T07:10:15;63.30;;;19.00;;
76550;SDS011;68768;53.156;18.164;2024-02-26T07:12:42;60.90;;;15.50;;
76550;SDS011;68768;53.156;18.164;2024-02-26T07:15:09;28.90;;;16.00;;
76550;SDS011;68768;53.156;18.164;2024-02-26T07:17:37;36.40;;;16.50;;
76550;SDS011;68768;53.156;18.164;2024-02-26T07:20:04;31.70;;;13.50;;
76550;SDS011;68768;53.156;18.164;2024-02-26T07:22:31;27.10;;;12.40;;
76550;SDS011;68768;53.156;18.164;2024-02-26T07:24:58;27.10;;;12.10;;
76550;SDS011;68768;53.156;18.164;2024-02-26T07:27:25;24.10;;;11.40;;
76550;SDS011;68768;53.156;18.164;2024-02-26T07:29:52;27.50;;;12.60;;
76550;SDS011;68768;53.156;18.164;2024-02-26T07:32:19;25.30;;;12.50;;
76550;SDS011;68768;53.156;18.164;2024-02-26T07:34:46;26.00;;;11.80;;
76550;SDS011;68768;53.156;18.164;2024-02-26T07:37:13;40.60;;;15.60;;
76550;SDS011;68768;53.156;18.164;2024-02-26T07:39:40;29.60;;;15.00;;
76550;SDS011;68768;53.156;18.164;2024-02-26T07:42:06;29.90;;;12.90;;
76550;SDS011;68768;53.156;18.164;2024-02-26T07:44:33;27.80;;;14.80;;
76550;SDS011;68768;53.156;18.164;2024-02-26T07:47:00;32.50;;;14.90;;
76550;SDS011;68768;53.156;18.164;2024-02-26T07:49:27;29.70;;;15.50;;
76550;SDS011;68768;53.156;18.164;2024-02-26T07:51:55;27.90;;;13.10;;
76550;SDS011;68768;53.156;18.164;2024-02-26T07:54:24;45.10;;;15.60;;
76550;SDS011;68768;53.156;18.164;2024-02-26T07:56:51;34.60;;;15.50;;
76550;SDS011;68768;53.156;18.164;2024-02-26T07:59:18;40.20;;;17.60;;
76550;SDS011;68768;53.156;18.164;2024-02-26T08:01:49;25.40;;;11.60;;
76550;SDS011;68768;53.156;18.164;2024-02-26T08:04:16;35.70;;;15.20;;
76550;SDS011;68768;53.156;18.164;2024-02-26T08:06:43;28.60;;;13.50;;
76550;SDS011;68768;53.156;18.164;2024-02-26T08:09:10;33.80;;;15.00;;
76550;SDS011;68768;53.156;18.164;2024-02-26T08:11:39;32.30;;;15.50;;
76550;SDS011;68768;53.156;18.164;2024-02-26T08:14:06;32.80;;;13.70;;
76550;SDS011;68768;53.156;18.164;2024-02-26T08:16:33;30.90;;;15.20;;
76550;SDS011;68768;53.156;18.164;2024-02-26T08:19:00;28.00;;;12.10;;
76550;SDS011;68768;53.156;18.164;2024-02-26T08:21:27;34.70;;;14.20;;
76550;SDS011;68768;53.156;18.164;2024-02-26T08:23:54;31.60;;;16.00;;
76550;SDS011;68768;53.156;18.164;2024-02-26T08:26:21;29.10;;;14.10;;
76550;SDS011;68768;53.156;18.164;2024-02-26T08:28:50;37.90;;;17.00;;
76550;SDS011;68768;53.156;18.164;2024-02-26T08:31:18;27.70;;;13.20;;
76550;SDS011;68768;53.156;18.164;2024-02-26T08:33:45;33.20;;;16.10;;
76550;SDS011;68768;53.156;18.164;2024-02-26T08:36:12;42.80;;;18.60;;
76550;SDS011;68768;53.156;18.164;2024-02-26T08:38:39;35.30;;;17.10;;
76550;SDS011;68768;53.156;18.164;2024-02-26T08:41:06;39.50;;;17.40;;
76550;SDS011;68768;53.156;18.164;2024-02-26T08:43:33;44.90;;;21.70;;
76550;SDS011;68768;53.156;18.164;2024-02-26T08:46:00;43.70;;;19.60;;
76550;SDS011;68768;53.156;18.164;2024-02-26T08:48:27;39.50;;;18.10;;
76550;SDS011;68768;53.156;18.164;2024-02-26T08:50:54;38.70;;;19.50;;
76550;SDS011;68768;53.156;18.164;2024-02-26T08:53:21;43.10;;;18.90;;
76550;SDS011;68768;53.156;18.164;2024-02-26T08:55:48;43.90;;;20.90;;
76550;SDS011;68768;53.156;18.164;2024-02-26T08:58:15;41.20;;;16.90;;
76550;SDS011;68768;53.156;18.164;2024-02-26T09:00:42;38.00;;;19.00;;
76550;SDS011;68768;53.156;18.164;2024-02-26T09:03:09;32.30;;;15.50;;
76550;SDS011;68768;53.156;18.164;2024-02-26T09:05:36;38.50;;;19.20;;
76550;SDS011;68768;53.156;18.164;2024-02-26T09:08:03;44.60;;;20.50;;
76550;SDS011;68768;53.156;18.164;2024-02-26T09:10:30;40.20;;;18.00;;
76550;SDS011;68768;53.156;18.164;2024-02-26T09:12:58;45.10;;;20.10;;
76550;SDS011;68768;53.156;18.164;2024-02-26T09:15:25;36.10;;;17.10;;
76550;SDS011;68768;53.156;18.164;2024-02-26T09:17:52;35.80;;;18.00;;
76550;SDS011;68768;53.156;18.164;2024-02-26T09:20:19;40.10;;;19.60;;
76550;SDS011;68768;53.156;18.164;2024-02-26T09:22:50;47.50;;;21.10;;
76550;SDS011;68768;53.156;18.164;2024-02-26T09:25:17;39.20;;;17.40;;
76550;SDS011;68768;53.156;18.164;2024-02-26T09:27:44;49.00;;;22.70;;
76550;SDS011;68768;53.156;18.164;2024-02-26T09:30:12;39.00;;;18.30;;
76550;SDS011;68768;53.156;18.164;2024-02-26T09:32:40;44.00;;;21.10;;
76550;SDS011;68768;53.156;18.164;2024-02-26T09:35:07;51.50;;;21.60;;
76550;SDS011;68768;53.156;18.164;2024-02-26T09:37:34;57.40;;;24.90;;
76550;SDS011;68768;53.156;18.164;2024-02-26T09:40:03;47.30;;;21.00;;
76550;SDS011;68768;53.156;18.164;2024-02-26T09:42:32;53.40;;;24.70;;
76550;SDS011;68768;53.156;18.164;2024-02-26T09:45:02;58.00;;;26.80;;
76550;SDS011;68768;53.156;18.164;2024-02-26T09:47:34;54.20;;;23.90;;
76550;SDS011;68768;53.156;18.164;2024-02-26T09:50:03;58.20;;;25.80;;
76550;SDS011;68768;53.156;18.164;2024-02-26T09:52:34;67.70;;;30.00;;
76550;SDS011;68768;53.156;18.164;2024-02-26T09:55:03;65.20;;;30.00;;
76550;SDS011;68768;53.156;18.164;2024-02-26T09:57:31;69.40;;;32.20;;
76550;SDS011;68768;53.156;18.164;2024-02-26T09:59:59;56.60;;;26.20;;
76550;SDS011;68768;53.156;18.164;2024-02-26T10:02:31;68.30;;;32.80;;
76550;SDS011;68768;53.156;18.164;2024-02-26T10:05:02;70.00;;;31.40;;
76550;SDS011;68768;53.156;18.164;2024-02-26T10:07:33;64.70;;;29.80;;
76550;SDS011;68768;53.156;18.164;2024-02-26T10:10:00;65.10;;;30.10;;
76550;SDS011;68768;53.156;18.164;2024-02-26T10:12:28;74.70;;;35.40;;
76550;SDS011;68768;53.156;18.164;2024-02-26T10:14:57;70.30;;;33.20;;
76550;SDS011;68768;53.156;18.164;2024-02-26T10:17:24;71.90;;;33.00;;
76550;SDS011;68768;53.156;18.164;2024-02-26T10:19:52;62.40;;;28.70;;
76550;SDS011;68768;53.156;18.164;2024-02-26T10:22:22;65.70;;;30.90;;
76550;SDS011;68768;53.156;18.164;2024-02-26T10:24:49;63.00;;;29.70;;
76550;SDS011;68768;53.156;18.164;2024-02-26T10:27:17;69.60;;;33.10;;
76550;SDS011;68768;53.156;18.164;2024-02-26T10:29:45;68.30;;;32.20;;
76550;SDS011;68768;53.156;18.164;2024-02-26T10:32:13;64.10;;;29.80;;
76550;SDS011;68768;53.156;18.164;2024-02-26T10:34:40;65.30;;;30.90;;
76550;SDS011;68768;53.156;18.164;2024-02-26T10:37:08;65.90;;;30.60;;
76550;SDS011;68768;53.156;18.164;2024-02-26T10:39:36;63.80;;;30.30;;
76550;SDS011;68768;53.156;18.164;2024-02-26T10:42:04;59.20;;;28.90;;
76550;SDS011;68768;53.156;18.164;2024-02-26T10:44:36;65.40;;;31.20;;
76550;SDS011;68768;53.156;18.164;2024-02-26T10:47:03;60.70;;;29.50;;
76550;SDS011;68768;53.156;18.164;2024-02-26T10:49:30;63.10;;;31.40;;
76550;SDS011;68768;53.156;18.164;2024-02-26T10:51:57;69.20;;;32.90;;
76550;SDS011;68768;53.156;18.164;2024-02-26T10:54:29;51.90;;;25.70;;
76550;SDS011;68768;53.156;18.164;2024-02-26T10:56:56;62.20;;;29.60;;
76550;SDS011;68768;53.156;18.164;2024-02-26T10:59:25;67.40;;;30.70;;
76550;SDS011;68768;53.156;18.164;2024-02-26T11:01:52;57.00;;;26.70;;
76550;SDS011;68768;53.156;18.164;2024-02-26T11:04:22;62.00;;;28.00;;
76550;SDS011;68768;53.156;18.164;2024-02-26T11:06:49;64.10;;;31.80;;
76550;SDS011;68768;53.156;18.164;2024-02-26T11:09:17;58.40;;;27.00;;
76550;SDS011;68768;53.156;18.164;2024-02-26T11:11:45;59.20;;;27.70;;
76550;SDS011;68768;53.156;18.164;2024-02-26T11:14:15;57.80;;;26.10;;
76550;SDS011;68768;53.156;18.164;2024-02-26T11:16:43;58.20;;;28.00;;
76550;SDS011;68768;53.156;18.164;2024-02-26T11:19:11;61.60;;;31.30;;
76550;SDS011;68768;53.156;18.164;2024-02-26T11:21:40;59.50;;;28.40;;
76550;SDS011;68768;53.156;18.164;2024-02-26T11:24:09;55.60;;;28.30;;
76550;SDS011;68768;53.156;18.164;2024-02-26T11:26:45;62.60;;;30.90;;
76550;SDS011;68768;53.156;18.164;2024-02-26T11:29:17;60.20;;;30.10;;
76550;SDS011;68768;53.156;18.164;2024-02-26T11:31:48;54.80;;;28.30;;
76550;SDS011;68768;53.156;18.164;2024-02-26T11:34:15;66.60;;;29.70;;
76550;SDS011;68768;53.156;18.164;2024-02-26T11:36:43;62.70;;;30.00;;
76550;SDS011;68768;53.156;18.164;2024-02-26T11:39:11;65.20;;;31.90;;
76550;SDS011;68768;53.156;18.164;2024-02-26T11:41:43;53.90;;;27.40;;
76550;SDS011;68768;53.156;18.164;2024-02-26T11:44:10;65.20;;;32.50;;
76550;SDS011;68768;53.156;18.164;2024-02-26T11:46:40;57.20;;;28.10;;
76550;SDS011;68768;53.156;18.164;2024-02-26T11:51:54;58.50;;;29.40;;
76550;SDS011;68768;53.156;18.164;2024-02-26T12:00:10;60.30;;;29.00;;
76550;SDS011;68768;53.156;18.164;2024-02-26T12:02:51;57.50;;;27.50;;
76550;SDS011;68768;53.156;18.164;2024-02-26T12:05:32;54.40;;;25.90;;
76550;SDS011;68768;53.156;18.164;2024-02-26T12:08:01;51.70;;;26.60;;
76550;SDS011;68768;53.156;18.164;2024-02-26T12:10:30;47.80;;;25.10;;
76550;SDS011;68768;53.156;18.164;2024-02-26T12:13:12;50.20;;;27.20;;
76550;SDS011;68768;53.156;18.164;2024-02-26T12:15:45;56.70;;;27.90;;
76550;SDS011;68768;53.156;18.164;2024-02-26T12:18:22;52.70;;;26.30;;
76550;SDS011;68768;53.156;18.164;2024-02-26T12:20:59;54.10;;;26.90;;
76550;SDS011;68768;53.156;18.164;2024-02-26T12:23:27;47.90;;;24.30;;
76550;SDS011;68768;53.156;18.164;2024-02-26T12:26:01;55.50;;;26.00;;
76550;SDS011;68768;53.156;18.164;2024-02-26T12:28:29;51.90;;;25.30;;
76550;SDS011;68768;53.156;18.164;2024-02-26T12:30:56;48.80;;;24.30;;
76550;SDS011;68768;53.156;18.164;2024-02-26T12:33:26;44.30;;;22.50;;
76550;SDS011;68768;53.156;18.164;2024-02-26T12:35:54;43.20;;;22.10;;
76550;SDS011;68768;53.156;18.164;2024-02-26T12:38:21;42.80;;;23.40;;
76550;SDS011;68768;53.156;18.164;2024-02-26T12:40:48;43.80;;;24.30;;
76550;SDS011;68768;53.156;18.164;2024-02-26T12:43:15;47.00;;;22.80;;
76550;SDS011;68768;53.156;18.164;2024-02-26T12:45:43;46.70;;;23.80;;
76550;SDS011;68768;53.156;18.164;2024-02-26T12:50:44;39.40;;;21.50;;
76550;SDS011;68768;53.156;18.164;2024-02-26T12:53:11;39.80;;;20.80;;
76550;SDS011;68768;53.156;18.164;2024-02-26T12:55:39;36.70;;;20.30;;
76550;SDS011;68768;53.156;18.164;2024-02-26T12:58:06;39.80;;;21.30;;
76550;SDS011;68768;53.156;18.164;2024-02-26T13:00:34;37.40;;;19.50;;
76550;SDS011;68768;53.156;18.164;2024-02-26T13:03:01;36.00;;;19.10;;
76550;SDS011;68768;53.156;18.164;2024-02-26T13:05:28;37.80;;;19.60;;
76550;SDS011;68768;53.156;18.164;2024-02-26T13:07:56;36.70;;;17.70;;
76550;SDS011;68768;53.156;18.164;2024-02-26T13:10:24;39.50;;;19.30;;
76550;SDS011;68768;53.156;18.164;2024-02-26T13:12:51;28.10;;;15.90;;
76550;SDS011;68768;53.156;18.164;2024-02-26T13:15:19;33.70;;;18.00;;
76550;SDS011;68768;53.156;18.164;2024-02-26T13:17:48;38.80;;;18.00;;
76550;SDS011;68768;53.156;18.164;2024-02-26T13:20:25;33.60;;;16.00;;
76550;SDS011;68768;53.156;18.164;2024-02-26T13:23:00;36.60;;;19.60;;
76550;SDS011;68768;53.156;18.164;2024-02-26T13:25:28;36.20;;;18.00;;
76550;SDS011;68768;53.156;18.164;2024-02-26T13:28:08;31.40;;;17.20;;
76550;SDS011;68768;53.156;18.164;2024-02-26T13:30:36;33.10;;;17.30;;
76550;SDS011;68768;53.156;18.164;2024-02-26T13:33:12;34.40;;;17.80;;
76550;SDS011;68768;53.156;18.164;2024-02-26T13:35:39;29.30;;;17.30;;
76550;SDS011;68768;53.156;18.164;2024-02-26T13:38:06;30.10;;;16.20;;
76550;SDS011;68768;53.156;18.164;2024-02-26T13:40:34;32.50;;;16.40;;
76550;SDS011;68768;53.156;18.164;2024-02-26T13:43:02;32.20;;;16.60;;
76550;SDS011;68768;53.156;18.164;2024-02-26T13:45:29;32.10;;;16.20;;
76550;SDS011;68768;53.156;18.164;2024-02-26T13:48:05;28.30;;;16.40;;
76550;SDS011;68768;53.156;18.164;2024-02-26T13:50:34;27.00;;;14.90;;
76550;SDS011;68768;53.156;18.164;2024-02-26T13:53:01;27.30;;;13.90;;
76550;SDS011;68768;53.156;18.164;2024-02-26T13:55:28;24.70;;;13.40;;
76550;SDS011;68768;53.156;18.164;2024-02-26T13:57:58;25.40;;;13.10;;
76550;SDS011;68768;53.156;18.164;2024-02-26T14:00:30;26.60;;;12.70;;
76550;SDS011;68768;53.156;18.164;2024-02-26T14:03:00;21.90;;;12.40;;
76550;SDS011;68768;53.156;18.164;2024-02-26T14:05:30;21.90;;;12.50;;
76550;SDS011;68768;53.156;18.164;2024-02-26T14:07:57;25.00;;;12.90;;
76550;SDS011;68768;53.156;18.164;2024-02-26T14:10:25;25.00;;;13.60;;
76550;SDS011;68768;53.156;18.164;2024-02-26T14:12:52;29.70;;;14.20;;
76550;SDS011;68768;53.156;18.164;2024-02-26T14:15:19;25.40;;;13.50;;
76550;SDS011;68768;53.156;18.164;2024-02-26T14:17:46;27.80;;;13.10;;
76550;SDS011;68768;53.156;18.164;2024-02-26T14:20:20;31.60;;;13.50;;
76550;SDS011;68768;53.156;18.164;2024-02-26T14:22:48;27.10;;;12.40;;